createdAt,value
2019-01-03T00:01:56.445Z,3.10
2019-01-03T00:04:43.776Z,3.30
2019-01-03T00:07:15.526Z,2.65
2019-01-03T00:10:02.968Z,3.10
2019-01-03T00:12:52.414Z,2.65
2019-01-03T00:15:39.797Z,3.85
2019-01-03T00:18:27.206Z,1.80
2019-01-03T00:20:58.586Z,2.98
2019-01-03T00:23:35.805Z,2.58
2019-01-03T00:26:10.314Z,2.52
2019-01-03T00:28:57.781Z,3.40
2019-01-03T00:31:37.780Z,3.58
2019-01-03T00:34:25.232Z,2.90
2019-01-03T00:37:03.940Z,3.40
2019-01-03T00:39:35.785Z,3.40
2019-01-03T00:42:15.983Z,3.20
2019-01-03T00:44:52.956Z,3.65
2019-01-03T00:47:36.380Z,2.70
2019-01-03T00:50:11.514Z,3.20
2019-01-03T00:52:49.833Z,3.72
2019-01-03T00:55:23.985Z,4.50
2019-01-03T00:57:55.446Z,3.37
2019-01-03T01:00:29.631Z,3.35
2019-01-03T01:03:06.612Z,3.00
2019-01-03T01:05:40.523Z,3.60
2019-01-03T01:08:23.628Z,3.62
2019-01-03T01:11:11.695Z,3.67
2019-01-03T01:13:49.094Z,4.12
2019-01-03T01:16:20.463Z,2.22
2019-01-03T01:18:51.816Z,2.75
2019-01-03T01:21:23.219Z,3.33
2019-01-03T01:24:10.688Z,3.33
2019-01-03T01:26:42.045Z,2.90
2019-01-03T01:29:29.444Z,3.27
2019-01-03T01:32:03.859Z,2.60
2019-01-03T01:34:38.306Z,2.80
2019-01-03T01:37:25.912Z,2.27
2019-01-03T01:40:02.849Z,2.27
2019-01-03T01:42:49.298Z,3.25
2019-01-03T01:45:27.498Z,4.30
2019-01-03T01:48:15.050Z,3.00
2019-01-03T01:50:49.108Z,3.10
2019-01-03T01:53:32.355Z,3.02
2019-01-03T01:56:19.784Z,2.62
2019-01-03T01:58:57.143Z,3.30
2019-01-03T02:01:31.279Z,2.80
2019-01-03T02:04:12.948Z,3.02
2019-01-03T02:06:47.382Z,2.47
2019-01-03T02:09:19.807Z,3.20
2019-01-03T02:11:49.398Z,3.10
2019-01-03T02:14:22.019Z,3.10
2019-01-03T02:17:03.354Z,3.22
2019-01-03T02:19:40.404Z,3.70
2019-01-03T02:22:17.894Z,2.00
2019-01-03T02:24:55.421Z,3.25
2019-01-03T02:27:26.764Z,3.00
2019-01-03T02:29:56.301Z,2.90
2019-01-03T02:32:26.209Z,3.22
2019-01-03T02:35:03.234Z,3.20
2019-01-03T02:37:50.463Z,2.62
2019-01-03T02:40:37.783Z,2.62
2019-01-03T02:43:09.127Z,3.22
2019-01-03T02:45:49.574Z,3.27
2019-01-03T02:48:36.982Z,3.62
2019-01-03T02:51:24.524Z,3.40
2019-01-03T02:54:11.058Z,2.65
2019-01-03T02:56:46.477Z,2.92
2019-01-03T02:59:23.696Z,2.45
2019-01-03T03:01:53.729Z,2.58
2019-01-03T03:04:30.914Z,3.65
2019-01-03T03:07:18.657Z,3.95
2019-01-03T03:09:50.066Z,3.20
2019-01-03T03:12:26.987Z,3.60
2019-01-03T03:15:01.163Z,2.85
2019-01-03T03:17:32.505Z,2.95
2019-01-03T03:20:18.759Z,2.98
2019-01-03T03:22:50.141Z,3.50
2019-01-03T03:25:37.642Z,3.58
2019-01-03T03:28:14.794Z,2.67
2019-01-03T03:31:00.994Z,2.80
2019-01-03T03:33:30.456Z,3.62
2019-01-03T03:36:19.164Z,1.95
2019-01-03T03:38:53.854Z,2.33
2019-01-03T03:41:25.210Z,3.10
2019-01-03T03:43:59.438Z,3.52
2019-01-03T03:46:46.933Z,2.83
2019-01-03T03:49:22.350Z,2.45
2019-01-03T03:52:11.829Z,3.62
2019-01-03T03:54:41.347Z,2.80
2019-01-03T03:57:24.412Z,2.02
2019-01-03T04:00:07.684Z,2.52
2019-01-03T04:02:39.036Z,2.60
2019-01-03T04:05:10.404Z,3.45
2019-01-03T04:07:50.558Z,2.62
2019-01-03T04:10:22.453Z,2.50
2019-01-03T04:13:00.593Z,2.70
2019-01-03T04:15:41.414Z,2.08
2019-01-03T04:18:12.779Z,2.05
2019-01-03T04:21:00.228Z,3.12
2019-01-03T04:23:37.298Z,2.30
2019-01-03T04:26:26.693Z,2.95
2019-01-03T04:28:58.026Z,2.90
2019-01-03T04:31:34.982Z,3.20
2019-01-03T04:34:14.857Z,2.83
2019-01-03T04:36:52.049Z,2.85
2019-01-03T04:39:23.445Z,2.67
2019-01-03T04:42:00.665Z,2.70
2019-01-03T04:44:38.786Z,2.52
2019-01-03T04:47:19.106Z,3.25
2019-01-03T04:50:08.404Z,2.87
2019-01-03T04:52:55.886Z,2.60
2019-01-03T04:55:27.261Z,2.98
2019-01-03T04:58:08.559Z,3.20
2019-01-03T05:00:40.705Z,3.75
2019-01-03T05:03:28.369Z,2.70
2019-01-03T05:06:02.579Z,3.15
2019-01-03T05:08:33.956Z,2.27
2019-01-03T05:11:20.082Z,2.92
2019-01-03T05:13:51.445Z,2.37
2019-01-03T05:16:38.470Z,3.47
2019-01-03T05:19:24.956Z,2.98
2019-01-03T05:22:02.315Z,3.12
2019-01-03T05:24:45.686Z,2.92
2019-01-03T05:27:22.629Z,2.80
2019-01-03T05:29:56.794Z,2.50
2019-01-03T05:32:28.148Z,3.37
2019-01-03T05:34:59.506Z,2.77
2019-01-03T05:37:46.046Z,3.02
2019-01-03T05:40:19.990Z,2.52
2019-01-03T05:43:00.017Z,3.00
2019-01-03T05:45:34.181Z,2.70
2019-01-03T05:48:21.505Z,3.37
2019-01-03T05:51:09.037Z,3.65
2019-01-03T05:53:40.412Z,2.85
2019-01-03T05:56:12.695Z,3.60
2019-01-03T05:58:55.908Z,3.27
2019-01-03T06:01:29.988Z,2.87
2019-01-03T06:04:13.136Z,2.27
2019-01-03T06:06:42.735Z,2.10
2019-01-03T06:09:17.736Z,3.27
2019-01-03T06:12:05.337Z,2.67
2019-01-03T06:14:54.873Z,2.85
2019-01-03T06:17:34.852Z,3.10
2019-01-03T06:20:13.897Z,2.95
2019-01-03T06:22:47.963Z,2.52
2019-01-03T06:25:25.213Z,2.33
2019-01-03T06:27:56.547Z,2.62
2019-01-03T06:30:40.803Z,2.65
2019-01-03T06:33:12.137Z,2.50
2019-01-03T06:35:47.566Z,2.65
2019-01-03T06:38:21.732Z,2.35
2019-01-03T06:40:53.096Z,3.47
2019-01-03T06:43:40.555Z,2.72
2019-01-03T06:46:11.964Z,2.60
2019-01-03T06:48:59.126Z,2.55
2019-01-03T06:51:40.585Z,2.98
2019-01-03T06:54:28.194Z,3.10
2019-01-03T06:57:12.614Z,3.20
2019-01-03T06:59:49.713Z,3.35
2019-01-03T07:02:24.857Z,4.55
2019-01-03T07:05:12.358Z,2.90
2019-01-03T07:07:59.611Z,2.58
2019-01-03T07:10:30.954Z,2.90
2019-01-03T07:13:11.281Z,2.77
2019-01-03T07:15:48.617Z,2.55
2019-01-03T07:18:25.944Z,2.47
2019-01-03T07:20:58.382Z,3.05
2019-01-03T07:23:30.512Z,2.70
2019-01-03T07:26:01.909Z,2.98
2019-01-03T07:28:48.300Z,2.58
2019-01-03T07:31:28.861Z,2.05
2019-01-03T07:34:13.408Z,2.35
2019-01-03T07:37:00.377Z,2.52
2019-01-03T07:39:37.575Z,2.80
2019-01-03T07:42:11.629Z,2.37
2019-01-03T07:44:58.083Z,2.75
2019-01-03T07:47:29.706Z,2.37
2019-01-03T07:50:16.268Z,3.62
2019-01-03T07:52:58.087Z,2.60
2019-01-03T07:58:22.525Z,2.77
2019-01-03T08:01:09.352Z,2.80
2019-01-03T08:03:56.649Z,2.90
2019-01-03T08:06:44.277Z,2.98
2019-01-03T08:09:31.810Z,2.35
2019-01-03T08:12:03.268Z,3.70
2019-01-03T08:14:37.582Z,2.25
2019-01-03T08:17:08.924Z,3.87
2019-01-03T08:19:49.346Z,3.52
2019-01-03T08:22:37.208Z,2.60
2019-01-03T08:25:17.958Z,2.75
2019-01-03T08:28:05.604Z,2.87
2019-01-03T08:30:53.003Z,3.15
2019-01-03T08:33:33.256Z,3.20
2019-01-03T08:36:04.607Z,2.33
2019-01-03T08:38:52.291Z,3.05
2019-01-03T08:41:40.158Z,4.47
2019-01-03T08:44:27.648Z,3.15
2019-01-03T08:46:57.212Z,2.70
2019-01-03T08:49:34.529Z,2.05
2019-01-03T08:52:05.947Z,2.65
2019-01-03T08:54:39.884Z,3.40
2019-01-03T08:57:11.250Z,3.62
2019-01-03T09:02:19.857Z,2.40
2019-01-03T09:05:07.207Z,2.15
2019-01-03T09:07:56.625Z,3.10
2019-01-03T09:10:31.742Z,2.80
2019-01-03T09:13:18.947Z,3.02
2019-01-03T09:16:06.752Z,4.05
2019-01-03T09:18:54.047Z,2.60
2019-01-03T09:21:25.495Z,4.22
2019-01-03T09:23:56.817Z,3.50
2019-01-03T09:26:26.317Z,3.20
2019-01-03T09:29:06.551Z,3.22
2019-01-03T09:31:37.903Z,2.05
2019-01-03T09:34:25.287Z,3.52
2019-01-03T09:37:08.460Z,3.47
2019-01-03T09:39:42.664Z,4.42
2019-01-03T09:42:22.813Z,3.92
2019-01-03T09:44:52.617Z,4.70
2019-01-03T09:47:22.374Z,4.55
2019-01-03T09:49:53.373Z,4.67
2019-01-03T09:52:23.313Z,2.85
2019-01-03T09:54:53.072Z,1.75
2019-01-03T09:57:23.129Z,2.37
2019-01-03T09:59:52.888Z,2.52
2019-01-03T10:02:22.765Z,2.65
2019-01-03T10:04:52.528Z,2.52
2019-01-03T10:07:22.308Z,2.42
2019-01-03T10:09:52.079Z,2.67
2019-01-03T10:12:21.843Z,3.00
2019-01-03T10:14:51.648Z,1.87
2019-01-03T10:17:21.394Z,2.60
2019-01-03T10:19:51.193Z,2.37
2019-01-03T10:22:20.976Z,2.87
2019-01-03T10:24:50.771Z,2.47
2019-01-03T10:27:20.561Z,2.00
2019-01-03T10:29:50.359Z,2.52
2019-01-03T10:32:20.128Z,2.65
2019-01-03T10:34:49.909Z,2.77
2019-01-03T10:37:19.677Z,3.40
2019-01-03T10:39:49.496Z,2.70
2019-01-03T10:42:19.285Z,2.22
2019-01-03T10:44:49.100Z,2.47
2019-01-03T10:47:18.888Z,2.60
2019-01-03T10:49:48.716Z,2.72
2019-01-03T10:52:18.573Z,2.85
2019-01-03T10:54:48.382Z,2.40
2019-01-03T10:57:18.231Z,3.58
2019-01-03T10:59:48.414Z,3.75
2019-01-03T11:02:18.364Z,2.83
2019-01-03T11:04:48.125Z,3.95
2019-01-03T11:07:17.888Z,2.90
2019-01-03T11:09:47.696Z,2.85
2019-01-03T11:12:17.574Z,2.90
2019-01-03T11:14:47.345Z,2.85
2019-01-03T11:17:17.120Z,2.22
2019-01-03T11:19:46.921Z,2.40
2019-01-03T11:22:16.694Z,2.25
2019-01-03T11:24:46.593Z,2.40
2019-01-03T11:27:16.790Z,1.92
2019-01-03T11:29:46.743Z,2.40
2019-01-03T11:32:16.527Z,2.12
2019-01-03T11:34:46.417Z,2.08
2019-01-03T11:37:16.496Z,2.08
2019-01-03T11:39:46.422Z,3.00
2019-01-03T11:42:16.193Z,2.25
2019-01-03T11:44:45.997Z,3.15
2019-01-03T11:47:15.820Z,2.52
2019-01-03T11:49:45.589Z,3.10
2019-01-03T11:52:15.358Z,2.83
2019-01-03T11:54:45.142Z,2.60
2019-01-03T11:57:15.018Z,2.25
2019-01-03T11:59:44.818Z,2.30
2019-01-03T12:02:15.753Z,2.25
2019-01-03T12:04:45.621Z,2.50
2019-01-03T12:07:34.689Z,1.85
2019-01-03T12:10:04.993Z,2.65
2019-01-03T12:12:34.811Z,2.92
2019-01-03T12:15:05.852Z,1.80
2019-01-03T12:17:35.638Z,2.47
2019-01-03T12:20:06.652Z,2.10
2019-01-03T12:22:36.450Z,2.15
2019-01-03T12:25:06.249Z,1.85
2019-01-03T12:27:36.064Z,1.95
2019-01-03T12:30:09.156Z,2.70
2019-01-03T12:32:38.956Z,2.37
2019-01-03T12:35:09.145Z,1.80
2019-01-03T12:37:38.997Z,2.20
2019-01-03T12:40:09.201Z,2.40
2019-01-03T12:42:39.013Z,2.08
2019-01-03T12:45:09.282Z,2.20
2019-01-03T12:47:39.110Z,2.02
2019-01-03T12:50:11.122Z,2.25
2019-01-03T12:52:41.182Z,2.58
2019-01-03T12:55:10.968Z,2.12
2019-01-03T12:57:40.757Z,2.20
2019-01-03T13:00:12.707Z,2.02
2019-01-03T13:02:42.479Z,1.80
2019-01-03T13:05:12.276Z,2.12
2019-01-03T13:07:42.075Z,2.08
2019-01-03T13:10:12.078Z,2.20
2019-01-03T13:12:41.858Z,2.95
2019-01-03T13:15:11.645Z,2.27
2019-01-03T13:17:41.406Z,3.08
2019-01-03T13:20:11.199Z,2.42
2019-01-03T13:22:41.001Z,1.67
2019-01-03T13:25:10.874Z,1.60
2019-01-03T13:27:40.657Z,2.15
2019-01-03T13:30:11.275Z,1.70
2019-01-03T13:32:41.037Z,1.40
2019-01-03T13:35:10.828Z,2.00
2019-01-03T13:37:40.723Z,1.90
2019-01-03T13:40:10.491Z,1.62
2019-01-03T13:42:40.456Z,1.95
2019-01-03T13:45:10.228Z,2.62
2019-01-03T13:47:40.144Z,1.62
2019-01-03T13:50:09.947Z,2.02
2019-01-03T13:53:00.518Z,2.33
2019-01-03T13:55:30.306Z,1.77
2019-01-03T13:58:00.063Z,2.00
2019-01-03T14:00:29.831Z,2.50
2019-01-03T14:03:00.010Z,1.70
2019-01-03T14:05:29.812Z,2.15
2019-01-03T14:07:59.581Z,2.00
2019-01-03T14:10:29.342Z,2.05
2019-01-03T14:12:59.134Z,2.17
2019-01-03T14:15:28.907Z,2.67
2019-01-03T14:17:58.678Z,1.32
2019-01-03T14:20:28.438Z,1.80
2019-01-03T14:22:58.312Z,2.02
2019-01-03T14:25:28.106Z,1.50
2019-01-03T14:27:57.875Z,2.25
2019-01-03T14:30:27.662Z,2.17
2019-01-03T14:32:57.580Z,1.35
2019-01-03T14:35:27.334Z,2.27
2019-01-03T14:37:57.170Z,1.85
2019-01-03T14:40:27.090Z,2.00
2019-01-03T14:42:56.867Z,2.50
2019-01-03T14:45:26.665Z,2.35
2019-01-03T14:47:56.440Z,1.67
2019-01-03T14:50:26.224Z,2.00
2019-01-03T14:52:56.016Z,2.00
2019-01-03T14:55:25.830Z,1.60
2019-01-03T14:57:55.642Z,2.27
2019-01-03T15:00:25.448Z,1.40
2019-01-03T15:02:55.237Z,2.25
2019-01-03T15:05:25.062Z,1.65
2019-01-03T15:07:55.240Z,2.10
2019-01-03T15:10:25.075Z,2.35
2019-01-03T15:12:54.784Z,1.90
2019-01-03T15:15:24.619Z,1.98
2019-01-03T15:17:54.394Z,1.77
2019-01-03T15:20:24.333Z,1.90
2019-01-03T15:22:54.120Z,2.70
2019-01-03T15:25:23.885Z,2.02
2019-01-03T15:27:53.683Z,2.40
2019-01-03T15:30:23.456Z,2.30
2019-01-03T15:32:53.239Z,2.12
2019-01-03T15:35:23.001Z,1.98
2019-01-03T15:37:52.778Z,2.70
2019-01-03T15:40:22.668Z,2.17
2019-01-03T15:42:52.440Z,3.10
2019-01-03T15:45:22.547Z,2.55
2019-01-03T15:47:52.332Z,1.85
2019-01-03T15:50:22.134Z,3.20
2019-01-03T15:52:51.926Z,2.25
2019-01-03T15:55:21.746Z,3.42
2019-01-03T15:57:51.613Z,1.98
2019-01-03T16:00:21.438Z,1.95
2019-01-03T16:02:51.232Z,2.20
2019-01-03T16:05:21.009Z,1.92
2019-01-03T16:07:50.812Z,2.58
2019-01-03T16:10:20.607Z,2.00
2019-01-03T16:12:50.532Z,1.95
2019-01-03T16:15:20.351Z,1.80
2019-01-03T16:17:50.121Z,2.40
2019-01-03T16:20:19.904Z,1.52
2019-01-03T16:22:49.674Z,1.92
2019-01-03T16:25:19.460Z,3.70
2019-01-03T16:27:49.260Z,1.42
2019-01-03T16:30:19.030Z,1.52
2019-01-03T16:32:48.843Z,5.65
2019-01-03T16:35:18.629Z,4.60
2019-01-03T16:37:48.416Z,2.27
2019-01-03T16:40:18.215Z,1.67
2019-01-03T16:42:48.028Z,1.67
2019-01-03T16:45:17.843Z,1.75
2019-01-03T16:47:47.624Z,2.08
2019-01-03T16:50:17.405Z,1.72
2019-01-03T16:52:47.283Z,2.27
2019-01-03T16:55:17.232Z,2.47
2019-01-03T16:57:47.042Z,2.98
2019-01-03T17:00:16.928Z,2.52
2019-01-03T17:02:46.713Z,2.72
2019-01-03T17:05:16.602Z,2.30
2019-01-03T17:07:46.392Z,2.30
2019-01-03T17:10:16.178Z,3.80
2019-01-03T17:12:46.073Z,2.87
2019-01-03T17:15:15.859Z,2.70
2019-01-03T17:17:45.851Z,2.92
2019-01-03T17:20:15.654Z,2.40
2019-01-03T17:22:45.432Z,2.45
2019-01-03T17:25:15.208Z,3.62
2019-01-03T17:27:44.998Z,2.45
2019-01-03T17:30:14.790Z,2.60
2019-01-03T17:32:44.938Z,2.50
2019-01-03T17:35:14.723Z,2.72
2019-01-03T17:37:45.206Z,2.52
2019-01-03T17:40:14.978Z,3.40
2019-01-03T17:42:44.819Z,3.45
2019-01-03T17:45:14.652Z,3.35
2019-01-03T17:47:44.474Z,3.05
2019-01-03T17:50:14.267Z,2.92
2019-01-03T17:52:44.077Z,1.95
2019-01-03T17:55:14.006Z,2.10
2019-01-03T17:57:43.838Z,1.95
2019-01-03T18:00:19.863Z,2.62
2019-01-03T18:02:49.680Z,1.85
2019-01-03T18:05:19.479Z,2.60
2019-01-03T18:07:49.392Z,2.30
2019-01-03T18:10:19.523Z,2.40
2019-01-03T18:12:49.295Z,2.30
2019-01-03T18:15:19.117Z,2.87
2019-01-03T18:17:48.890Z,2.55
2019-01-03T18:20:19.032Z,3.15
2019-01-03T18:22:48.834Z,3.98
2019-01-03T18:25:18.673Z,2.70
2019-01-03T18:27:48.480Z,2.80
2019-01-03T18:30:18.265Z,3.60
2019-01-03T18:32:48.054Z,4.30
2019-01-03T18:35:17.863Z,3.33
2019-01-03T18:37:47.670Z,2.80
2019-01-03T18:40:17.419Z,4.30
2019-01-03T18:42:47.232Z,3.00
2019-01-03T18:45:17.992Z,2.50
2019-01-03T18:47:47.779Z,2.83
2019-01-03T18:50:19.064Z,2.15
2019-01-03T18:52:49.062Z,1.47
2019-01-03T18:55:18.814Z,1.95
2019-01-03T18:57:48.574Z,1.60
2019-01-03T19:00:18.389Z,2.10
2019-01-03T19:02:48.213Z,2.40
2019-01-03T19:05:18.286Z,2.27
2019-01-03T19:07:49.605Z,3.10
2019-01-03T19:10:19.386Z,2.80
2019-01-03T19:12:49.612Z,3.02
2019-01-03T19:15:19.408Z,5.80
2019-01-03T19:17:49.292Z,7.85
2019-01-03T19:20:19.304Z,4.15
2019-01-03T19:22:49.075Z,2.50
2019-01-03T19:25:19.231Z,5.87
2019-01-03T19:27:48.969Z,3.02
2019-01-03T19:30:18.785Z,4.12
2019-01-03T19:32:48.594Z,5.17
2019-01-03T19:35:18.400Z,6.42
2019-01-03T19:37:48.245Z,4.90
2019-01-03T19:40:18.016Z,3.40
2019-01-03T19:42:47.833Z,4.72
2019-01-03T19:45:17.603Z,3.45
2019-01-03T19:47:47.400Z,2.83
2019-01-03T19:50:18.526Z,3.60
2019-01-03T19:52:48.334Z,2.98
2019-01-03T19:55:18.227Z,3.17
2019-01-03T19:57:48.001Z,3.17
2019-01-03T20:00:17.792Z,2.70
2019-01-03T20:02:47.590Z,3.22
2019-01-03T20:05:17.342Z,2.65
2019-01-03T20:07:47.156Z,3.15
2019-01-03T20:10:16.960Z,3.50
2019-01-03T20:12:46.731Z,2.75
2019-01-03T20:15:16.603Z,3.25
2019-01-03T20:17:46.397Z,4.05
2019-01-03T20:20:16.193Z,5.28
2019-01-03T20:22:45.966Z,4.35
2019-01-03T20:25:15.766Z,4.75
2019-01-03T20:27:45.876Z,4.45
2019-01-03T20:30:15.750Z,4.40
2019-01-03T20:32:45.547Z,4.70
2019-01-03T20:35:15.342Z,4.17
2019-01-03T20:37:45.169Z,3.27
2019-01-03T20:40:15.074Z,3.17
2019-01-03T20:42:44.830Z,4.25
2019-01-03T20:45:14.816Z,3.42
2019-01-03T20:47:44.986Z,4.65
2019-01-03T20:50:14.874Z,3.95
2019-01-03T20:52:44.647Z,3.17
2019-01-03T20:55:14.727Z,3.05
2019-01-03T20:57:44.911Z,3.62
2019-01-03T21:00:16.517Z,4.33
2019-01-03T21:02:46.327Z,3.77
2019-01-03T21:05:16.120Z,3.30
2019-01-03T21:07:45.921Z,3.40
2019-01-03T21:10:16.704Z,2.85
2019-01-03T21:12:46.501Z,4.47
2019-01-03T21:15:17.627Z,4.17
2019-01-03T21:17:47.425Z,4.28
2019-01-03T21:20:17.820Z,3.98
2019-01-03T21:22:47.637Z,5.28
2019-01-03T21:25:17.447Z,5.45
2019-01-03T21:27:47.284Z,6.20
2019-01-03T21:30:18.762Z,4.97
2019-01-03T21:32:48.565Z,4.05
2019-01-03T21:35:18.384Z,4.83
2019-01-03T21:37:48.457Z,4.85
2019-01-03T21:40:18.320Z,3.25
2019-01-03T21:42:48.237Z,5.65
2019-01-03T21:45:18.016Z,6.78
2019-01-03T21:47:47.801Z,7.35
2019-01-03T21:50:17.594Z,5.87
2019-01-03T21:52:47.382Z,5.87
2019-01-03T21:55:17.169Z,5.42
2019-01-03T21:57:46.963Z,5.08
2019-01-03T22:00:16.836Z,5.95
2019-01-03T22:02:46.658Z,5.20
2019-01-03T22:05:16.454Z,6.03
2019-01-03T22:07:46.261Z,5.42
2019-01-03T22:10:16.096Z,5.85
2019-01-03T22:12:46.030Z,5.37
2019-01-03T22:15:15.833Z,6.70
2019-01-03T22:17:45.610Z,6.33
2019-01-03T22:20:15.555Z,6.75
2019-01-03T22:22:45.372Z,5.37
2019-01-03T22:25:15.366Z,6.30
2019-01-03T22:27:45.178Z,6.10
2019-01-03T22:30:14.940Z,6.72
2019-01-03T22:32:44.729Z,5.37
2019-01-03T22:35:14.542Z,4.58
2019-01-03T22:37:44.361Z,4.70
2019-01-03T22:40:14.255Z,5.92
2019-01-03T22:42:44.021Z,5.42
2019-01-03T22:45:13.818Z,4.37
2019-01-03T22:47:43.925Z,4.17
2019-01-03T22:50:13.722Z,5.85
2019-01-03T22:52:43.497Z,4.70
2019-01-03T22:55:13.385Z,4.72
2019-01-03T22:57:43.182Z,4.60
2019-01-03T23:00:35.190Z,5.20
2019-01-03T23:03:05.135Z,5.53
2019-01-03T23:05:34.908Z,5.30
2019-01-03T23:08:04.748Z,4.80
2019-01-03T23:10:35.189Z,5.47
2019-01-03T23:13:04.962Z,5.50
2019-01-03T23:15:34.731Z,4.85
2019-01-03T23:18:04.496Z,5.05
2019-01-03T23:20:34.600Z,4.53
2019-01-03T23:23:04.375Z,3.98
2019-01-03T23:25:34.180Z,4.33
2019-01-03T23:28:03.946Z,4.90
2019-01-03T23:30:33.744Z,5.00
2019-01-03T23:33:03.507Z,4.30
2019-01-03T23:35:33.448Z,5.33
2019-01-03T23:38:03.516Z,4.80
2019-01-03T23:40:33.362Z,5.20
2019-01-03T23:43:03.169Z,4.35
2019-01-03T23:45:34.601Z,4.47
2019-01-03T23:48:05.408Z,4.70
2019-01-03T23:50:35.888Z,4.72
2019-01-03T23:53:05.719Z,5.25
2019-01-03T23:55:37.183Z,4.70
2019-01-03T23:58:06.985Z,6.55
